Time,TemperatureF,DewpointF,PressureIn,WindDirection,WindDirectionDegrees,WindSpeedMPH,WindSpeedGustMPH,Humidity,HourlyPrecipIn,Conditions,Clouds,dailyrainin,SoftwareType,DateUTC
2013-07-18 00:01:00,70.0,63.0,30.17,NE,49,5.0,-999.0,79,0.00,,,-99.99,,2013-07-18 06:01:00,
2013-07-18 00:11:00,70.0,65.0,30.17,NE,49,0.0,-999.0,84,0.00,,,-99.99,,2013-07-18 06:11:00,
2013-07-18 00:22:00,69.0,65.0,30.17,NE,38,0.0,-999.0,86,0.00,,,-99.99,,2013-07-18 06:22:00,
2013-07-18 00:32:00,69.0,65.0,30.17,NE,38,0.0,-999.0,86,0.00,,,-99.99,,2013-07-18 06:32:00,
2013-07-18 00:43:00,68.0,64.0,30.16,North,359,0.0,-999.0,86,0.00,,,-99.99,,2013-07-18 06:43:00,
2013-07-18 00:52:00,68.0,64.0,30.16,NNW,340,0.0,-999.0,86,0.00,,,-99.99,,2013-07-18 06:52:00,
2013-07-18 01:01:00,69.0,65.0,30.16,NNE,14,0.0,-999.0,86,0.00,,,-99.99,,2013-07-18 07:01:00,
2013-07-18 01:11:00,68.0,64.0,30.16,NE,41,0.0,-999.0,86,0.00,,,-99.99,,2013-07-18 07:11:00,
2013-07-18 01:22:00,68.0,63.0,30.16,North,356,3.0,-999.0,85,0.00,,,-99.99,,2013-07-18 07:22:00,
2013-07-18 01:32:00,68.0,63.0,30.16,North,356,0.0,-999.0,85,0.00,,,-99.99,,2013-07-18 07:32:00,
2013-07-18 01:42:00,69.0,65.0,30.15,NNW,328,0.0,-999.0,88,0.00,,,-99.99,,2013-07-18 07:42:00,
2013-07-18 01:52:00,68.0,65.0,30.15,NNW,329,4.0,-999.0,91,0.00,,,-99.99,,2013-07-18 07:52:00,
2013-07-18 02:01:00,68.0,66.0,30.14,North,359,0.0,-999.0,92,0.00,,,-99.99,,2013-07-18 08:01:00,
2013-07-18 02:11:00,68.0,66.0,30.14,North,350,0.0,-999.0,93,0.00,,,-99.99,,2013-07-18 08:11:00,
2013-07-18 02:21:00,68.0,66.0,30.14,North,359,0.0,-999.0,94,0.00,,,-99.99,,2013-07-18 08:21:00,
2013-07-18 02:32:00,68.0,67.0,30.14,East,80,2.0,-999.0,96,0.00,,,-99.99,,2013-07-18 08:32:00,
2013-07-18 02:42:00,67.0,66.0,30.13,NNE,25,0.0,-999.0,97,0.00,,,-99.99,,2013-07-18 08:42:00,
2013-07-18 02:51:00,66.0,65.0,30.13,NE,38,0.0,-999.0,98,0.00,,,-99.99,,2013-07-18 08:51:00,
2013-07-18 03:01:00,67.0,66.0,30.14,NE,42,0.0,-999.0,98,0.01,,,-99.99,,2013-07-18 09:01:00,
2013-07-18 03:11:00,67.0,66.0,30.14,NE,34,0.0,-999.0,98,0.01,,,-99.99,,2013-07-18 09:11:00,
2013-07-18 03:21:00,66.0,65.0,30.13,NE,34,0.0,-999.0,98,0.01,,,-99.99,,2013-07-18 09:21:00,
2013-07-18 03:31:00,66.0,65.0,30.13,NE,34,0.0,-999.0,98,0.01,,,-99.99,,2013-07-18 09:31:00,
2013-07-18 03:41:00,67.0,66.0,30.13,NE,34,0.0,-999.0,98,0.01,,,-99.99,,2013-07-18 09:41:00,
2013-07-18 03:51:00,66.0,66.0,30.13,NE,34,0.0,-999.0,99,0.01,,,-99.99,,2013-07-18 09:51:00,
2013-07-18 04:01:00,66.0,66.0,30.13,NE,34,0.0,-999.0,99,0.01,,,-99.99,,2013-07-18 10:01:00,
2013-07-18 04:11:00,67.0,67.0,30.13,NE,34,0.0,-999.0,99,0.01,,,-99.99,,2013-07-18 10:11:00,
2013-07-18 04:21:00,66.0,60.0,30.13,NE,34,0.0,-999.0,81,0.01,,,-99.99,,2013-07-18 10:21:00,
2013-07-18 04:32:00,67.0,67.0,30.13,NE,42,0.0,-999.0,99,0.01,,,-99.99,,2013-07-18 10:32:00,
2013-07-18 04:42:00,67.0,66.0,30.13,NE,37,0.0,-999.0,98,0.02,,,-99.99,,2013-07-18 10:42:00,
2013-07-18 04:52:00,66.0,65.0,30.14,NNE,21,0.0,-999.0,98,0.02,,,-99.99,,2013-07-18 10:52:00,
2013-07-18 05:01:00,66.0,66.0,30.14,NNE,21,0.0,-999.0,99,0.02,,,-99.99,,2013-07-18 11:01:00,
2013-07-18 05:11:00,66.0,66.0,30.13,NNE,21,0.0,-999.0,100,0.02,,,-99.99,,2013-07-18 11:11:00,
2013-07-18 05:22:00,66.0,66.0,30.12,NNE,20,0.0,-999.0,100,0.02,,,-99.99,,2013-07-18 11:22:00,
2013-07-18 05:32:00,66.0,66.0,30.13,NNE,20,0.0,-999.0,100,0.02,,,-99.99,,2013-07-18 11:32:00,
2013-07-18 05:43:00,65.0,65.0,30.14,NNE,20,0.0,-999.0,100,0.02,,,-99.99,,2013-07-18 11:43:00,
2013-07-18 05:52:00,65.0,65.0,30.13,NNE,20,0.0,-999.0,100,0.02,,,-99.99,,2013-07-18 11:52:00,
2013-07-18 06:01:00,66.0,66.0,30.14,NNE,20,0.0,-999.0,100,0.03,,,-99.99,,2013-07-18 12:01:00,
2013-07-18 06:11:00,66.0,66.0,30.14,NNE,20,0.0,-999.0,100,0.03,,,-99.99,,2013-07-18 12:11:00,
2013-07-18 06:22:00,66.0,66.0,30.13,NNE,20,0.0,-999.0,100,0.03,,,-99.99,,2013-07-18 12:22:00,
2013-07-18 06:32:00,66.0,66.0,30.13,NNE,20,0.0,-999.0,100,0.03,,,-99.99,,2013-07-18 12:32:00,
2013-07-18 06:42:00,66.0,57.0,30.13,NNE,20,0.0,-999.0,72,0.03,,,-99.99,,2013-07-18 12:42:00,
2013-07-18 06:52:00,66.0,66.0,30.14,NNE,20,0.0,-999.0,99,0.03,,,-99.99,,2013-07-18 12:52:00,
2013-07-18 07:01:00,66.0,66.0,30.14,NNE,20,0.0,-999.0,100,0.03,,,-99.99,,2013-07-18 13:01:00,
2013-07-18 07:11:00,66.0,55.0,30.15,NNE,20,0.0,-999.0,68,0.03,,,-99.99,,2013-07-18 13:11:00,
2013-07-18 07:22:00,66.0,66.0,30.16,NNE,20,0.0,-999.0,99,0.03,,,-99.99,,2013-07-18 13:22:00,
2013-07-18 07:32:00,66.0,66.0,30.16,NNE,20,0.0,-999.0,99,0.03,,,-99.99,,2013-07-18 13:32:00,
2013-07-18 07:43:00,66.0,66.0,30.16,NNE,20,0.0,-999.0,99,0.04,,,-99.99,,2013-07-18 13:43:00,
2013-07-18 07:52:00,66.0,66.0,30.16,NNE,20,0.0,-999.0,99,0.04,,,-99.99,,2013-07-18 13:52:00,
2013-07-18 08:02:00,66.0,66.0,30.16,NNE,20,0.0,-999.0,99,0.04,,,-99.99,,2013-07-18 14:02:00,
2013-07-18 08:11:00,66.0,66.0,30.16,NNE,20,0.0,-999.0,99,0.04,,,-99.99,,2013-07-18 14:11:00,
2013-07-18 08:22:00,66.0,65.0,30.17,NNE,20,0.0,-999.0,98,0.04,,,-99.99,,2013-07-18 14:22:00,
2013-07-18 08:32:00,67.0,66.0,30.17,NNE,20,0.0,-999.0,98,0.04,,,-99.99,,2013-07-18 14:32:00,
2013-07-18 08:43:00,67.0,66.0,30.18,NNE,20,0.0,-999.0,98,0.04,,,-99.99,,2013-07-18 14:43:00,
2013-07-18 08:52:00,67.0,66.0,30.18,NNE,20,0.0,-999.0,98,0.04,,,-99.99,,2013-07-18 14:52:00,
2013-07-18 09:01:00,67.0,55.0,30.18,NNE,20,0.0,-999.0,65,0.04,,,-99.99,,2013-07-18 15:01:00,
2013-07-18 09:11:00,67.0,67.0,30.18,NNE,20,0.0,-999.0,99,0.04,,,-99.99,,2013-07-18 15:11:00,
2013-07-18 09:22:00,67.0,67.0,30.18,NNE,20,0.0,-999.0,99,0.04,,,-99.99,,2013-07-18 15:22:00,
2013-07-18 09:32:00,67.0,67.0,30.18,NNE,20,0.0,-999.0,99,0.05,,,-99.99,,2013-07-18 15:32:00,
2013-07-18 09:42:00,67.0,66.0,30.18,NNE,20,0.0,-999.0,98,0.05,,,-99.99,,2013-07-18 15:42:00,
2013-07-18 09:53:00,68.0,67.0,30.18,NNE,20,0.0,-999.0,98,0.05,,,-99.99,,2013-07-18 15:53:00,
2013-07-18 10:01:00,68.0,67.0,30.18,NNE,20,0.0,-999.0,98,0.05,,,-99.99,,2013-07-18 16:01:00,
2013-07-18 10:11:00,68.0,67.0,30.18,NNE,20,0.0,-999.0,98,0.05,,,-99.99,,2013-07-18 16:11:00,
2013-07-18 10:22:00,68.0,68.0,30.18,NNE,20,0.0,-999.0,99,0.05,,,-99.99,,2013-07-18 16:22:00,
2013-07-18 10:32:00,67.0,66.0,30.18,NE,34,0.0,-999.0,98,0.05,,,-99.99,,2013-07-18 16:32:00,
2013-07-18 10:42:00,68.0,68.0,30.18,NE,34,0.0,-999.0,99,0.05,,,-99.99,,2013-07-18 16:42:00,
2013-07-18 10:52:00,68.0,68.0,30.18,NE,34,0.0,-999.0,99,0.05,,,-99.99,,2013-07-18 16:52:00,
2013-07-18 11:02:00,68.0,68.0,30.18,NE,34,0.0,-999.0,99,0.05,,,-99.99,,2013-07-18 17:02:00,
2013-07-18 11:11:00,67.0,67.0,30.18,NE,34,0.0,-999.0,99,0.05,,,-99.99,,2013-07-18 17:11:00,
2013-07-18 11:22:00,68.0,68.0,30.18,NE,34,0.0,-999.0,99,0.05,,,-99.99,,2013-07-18 17:22:00,
2013-07-18 11:33:00,68.0,68.0,30.18,NE,34,0.0,-999.0,99,0.05,,,-99.99,,2013-07-18 17:33:00,
2013-07-18 11:43:00,68.0,68.0,30.17,NE,34,0.0,-999.0,99,0.05,,,-99.99,,2013-07-18 17:43:00,
2013-07-18 11:52:00,68.0,68.0,30.17,NE,34,0.0,-999.0,100,0.06,,,-99.99,,2013-07-18 17:52:00,
2013-07-18 12:01:00,68.0,68.0,30.17,NE,34,0.0,-999.0,100,0.06,,,-99.99,,2013-07-18 18:01:00,
2013-07-18 12:11:00,68.0,68.0,30.17,NE,34,0.0,-999.0,100,0.06,,,-99.99,,2013-07-18 18:11:00,
2013-07-18 12:22:00,68.0,68.0,30.17,NE,34,0.0,-999.0,100,0.06,,,-99.99,,2013-07-18 18:22:00,
2013-07-18 12:32:00,68.0,68.0,30.16,NE,34,0.0,-999.0,100,0.06,,,-99.99,,2013-07-18 18:32:00,
2013-07-18 12:43:00,68.0,68.0,30.16,NE,34,0.0,-999.0,100,0.06,,,-99.99,,2013-07-18 18:43:00,
2013-07-18 12:52:00,68.0,68.0,30.16,NE,34,0.0,-999.0,100,0.06,,,-99.99,,2013-07-18 18:52:00,
2013-07-18 13:01:00,68.0,68.0,30.16,NE,34,0.0,-999.0,100,0.06,,,-99.99,,2013-07-18 19:01:00,
2013-07-18 13:11:00,69.0,69.0,30.16,NE,34,0.0,-999.0,100,0.06,,,-99.99,,2013-07-18 19:11:00,
2013-07-18 13:22:00,69.0,69.0,30.16,NE,34,0.0,-999.0,99,0.06,,,-99.99,,2013-07-18 19:22:00,
2013-07-18 13:32:00,69.0,69.0,30.15,NE,34,0.0,-999.0,99,0.06,,,-99.99,,2013-07-18 19:32:00,
2013-07-18 13:43:00,70.0,69.0,30.15,NE,34,0.0,-999.0,98,0.06,,,-99.99,,2013-07-18 19:43:00,
2013-07-18 13:53:00,70.0,69.0,30.15,NE,34,0.0,-999.0,96,0.06,,,-99.99,,2013-07-18 19:53:00,
2013-07-18 14:01:00,70.0,68.0,30.15,NE,34,0.0,-999.0,94,0.06,,,-99.99,,2013-07-18 20:01:00,
2013-07-18 14:11:00,71.0,69.0,30.15,NE,34,0.0,-999.0,93,0.06,,,-99.99,,2013-07-18 20:11:00,
2013-07-18 14:22:00,72.0,70.0,30.15,NE,34,0.0,-999.0,93,0.06,,,-99.99,,2013-07-18 20:22:00,
2013-07-18 14:32:00,72.0,69.0,30.14,NE,34,0.0,-999.0,91,0.06,,,-99.99,,2013-07-18 20:32:00,
2013-07-18 14:43:00,73.0,69.0,30.14,NE,34,0.0,-999.0,86,0.06,,,-99.99,,2013-07-18 20:43:00,
2013-07-18 14:52:00,74.0,68.0,30.14,NNE,21,0.0,-999.0,83,0.06,,,-99.99,,2013-07-18 20:52:00,
2013-07-18 15:01:00,74.0,67.0,30.14,NE,38,0.0,-999.0,80,0.06,,,-99.99,,2013-07-18 21:01:00,
2013-07-18 15:11:00,75.0,67.0,30.13,NE,38,0.0,-999.0,77,0.06,,,-99.99,,2013-07-18 21:11:00,
2013-07-18 15:22:00,75.0,66.0,30.12,NE,53,0.0,-999.0,74,0.06,,,-99.99,,2013-07-18 21:22:00,
2013-07-18 15:32:00,76.0,67.0,30.12,NE,53,0.0,-999.0,74,0.07,,,-99.99,,2013-07-18 21:32:00,
2013-07-18 15:43:00,77.0,67.0,30.12,South,173,0.0,-999.0,71,0.07,,,-99.99,,2013-07-18 21:43:00,
2013-07-18 15:52:00,76.0,69.0,30.12,SE,132,0.0,-999.0,78,0.07,,,-99.99,,2013-07-18 21:52:00,
2013-07-18 16:01:00,73.0,69.0,30.12,NE,53,0.0,-999.0,87,0.07,,,-99.99,,2013-07-18 22:01:00,
2013-07-18 16:11:00,72.0,69.0,30.12,NE,48,0.0,-999.0,91,0.07,,,-99.99,,2013-07-18 22:11:00,
2013-07-18 16:22:00,71.0,68.0,30.12,NE,38,0.0,-999.0,91,0.07,,,-99.99,,2013-07-18 22:22:00,
2013-07-18 16:32:00,71.0,69.0,30.11,NE,38,0.0,-999.0,92,0.07,,,-99.99,,2013-07-18 22:32:00,
2013-07-18 16:43:00,71.0,69.0,30.11,NE,38,0.0,-999.0,93,0.07,,,-99.99,,2013-07-18 22:43:00,
2013-07-18 16:53:00,70.0,68.0,30.11,NNE,25,0.0,-999.0,95,0.07,,,-99.99,,2013-07-18 22:53:00,
2013-07-18 17:02:00,69.0,69.0,30.10,WNW,288,0.0,-999.0,99,0.07,,,-99.99,,2013-07-18 23:02:00,
2013-07-18 17:11:00,69.0,69.0,30.10,WNW,288,0.0,-999.0,100,0.07,,,-99.99,,2013-07-18 23:11:00,
2013-07-18 17:22:00,69.0,69.0,30.10,WNW,288,0.0,-999.0,100,0.07,,,-99.99,,2013-07-18 23:22:00,
2013-07-18 17:32:00,70.0,70.0,30.10,WNW,288,0.0,-999.0,100,0.07,,,-99.99,,2013-07-18 23:32:00,
2013-07-18 17:42:00,70.0,70.0,30.10,WNW,288,0.0,-999.0,100,0.07,,,-99.99,,2013-07-18 23:42:00,
2013-07-18 17:52:00,70.0,70.0,30.10,WNW,288,0.0,-999.0,100,0.07,,,-99.99,,2013-07-18 23:52:00,
2013-07-18 18:01:00,70.0,70.0,30.10,WNW,288,0.0,-999.0,100,0.07,,,-99.99,,2013-07-19 00:01:00,
2013-07-18 18:11:00,70.0,70.0,30.10,NE,48,0.0,-999.0,99,0.07,,,-99.99,,2013-07-19 00:11:00,
2013-07-18 18:22:00,70.0,69.0,30.10,ENE,66,0.0,-999.0,98,0.07,,,-99.99,,2013-07-19 00:22:00,
2013-07-18 18:32:00,70.0,69.0,30.10,NE,44,0.0,-999.0,96,0.07,,,-99.99,,2013-07-19 00:32:00,
2013-07-18 18:43:00,69.0,68.0,30.09,NE,44,0.0,-999.0,96,0.07,,,-99.99,,2013-07-19 00:43:00,
2013-07-18 18:52:00,70.0,68.0,30.09,NE,44,0.0,-999.0,95,0.07,,,-99.99,,2013-07-19 00:52:00,
2013-07-18 19:01:00,70.0,68.0,30.09,NE,44,0.0,-999.0,95,0.07,,,-99.99,,2013-07-19 01:01:00,
2013-07-18 19:11:00,70.0,68.0,30.08,NE,44,0.0,-999.0,95,0.07,,,-99.99,,2013-07-19 01:11:00,
2013-07-18 19:22:00,70.0,68.0,30.08,NE,44,0.0,-999.0,95,0.07,,,-99.99,,2013-07-19 01:22:00,
2013-07-18 19:32:00,70.0,68.0,30.08,NE,44,0.0,-999.0,94,0.07,,,-99.99,,2013-07-19 01:32:00,
2013-07-18 19:42:00,70.0,68.0,30.08,NE,44,0.0,-999.0,93,0.07,,,-99.99,,2013-07-19 01:42:00,
2013-07-18 19:52:00,70.0,68.0,30.08,NE,44,0.0,-999.0,93,0.07,,,-99.99,,2013-07-19 01:52:00,
2013-07-18 20:01:00,70.0,68.0,30.08,NE,44,0.0,-999.0,93,0.48,,,-99.99,,2013-07-19 02:01:00,
2013-07-18 20:11:00,70.0,68.0,30.08,NE,44,0.0,-999.0,93,0.48,,,-99.99,,2013-07-19 02:11:00,
2013-07-18 20:22:00,70.0,68.0,30.08,NE,44,0.0,-999.0,93,0.48,,,-99.99,,2013-07-19 02:22:00,
2013-07-18 20:32:00,70.0,68.0,30.08,NE,44,0.0,-999.0,93,0.48,,,-99.99,,2013-07-19 02:32:00,
2013-07-18 20:42:00,70.0,66.0,30.08,NE,44,0.0,-999.0,88,0.48,,,-99.99,,2013-07-19 02:42:00,
2013-07-18 20:52:00,70.0,68.0,30.08,NE,44,0.0,-999.0,94,0.48,,,-99.99,,2013-07-19 02:52:00,
2013-07-18 21:01:00,70.0,68.0,30.08,NE,44,0.0,-999.0,94,0.48,,,-99.99,,2013-07-19 03:01:00,
2013-07-18 21:11:00,70.0,68.0,30.09,NE,44,0.0,-999.0,94,0.48,,,-99.99,,2013-07-19 03:11:00,
2013-07-18 21:22:00,70.0,68.0,30.09,NE,44,0.0,-999.0,94,0.48,,,-99.99,,2013-07-19 03:22:00,
2013-07-18 21:32:00,70.0,68.0,30.09,NE,44,0.0,-999.0,94,0.48,,,-99.99,,2013-07-19 03:32:00,
2013-07-18 21:42:00,70.0,68.0,30.09,NE,44,0.0,-999.0,93,0.48,,,-99.99,,2013-07-19 03:42:00,
2013-07-18 21:52:00,70.0,68.0,30.10,NE,44,0.0,-999.0,93,0.48,,,-99.99,,2013-07-19 03:52:00,
2013-07-18 22:02:00,70.0,68.0,30.10,NE,44,0.0,-999.0,93,0.48,,,-99.99,,2013-07-19 04:02:00,
2013-07-18 22:12:00,69.0,67.0,30.10,NE,44,0.0,-999.0,93,0.48,,,-99.99,,2013-07-19 04:12:00,
2013-07-18 22:22:00,70.0,68.0,30.10,NE,44,0.0,-999.0,93,0.48,,,-99.99,,2013-07-19 04:22:00,
2013-07-18 22:33:00,70.0,68.0,30.11,NE,44,0.0,-999.0,93,0.48,,,-99.99,,2013-07-19 04:33:00,
2013-07-18 22:43:00,69.0,67.0,30.11,NE,44,0.0,-999.0,94,0.48,,,-99.99,,2013-07-19 04:43:00,
2013-07-18 22:52:00,69.0,67.0,30.11,NE,44,0.0,-999.0,94,0.48,,,-99.99,,2013-07-19 04:52:00,
2013-07-18 23:02:00,69.0,67.0,30.11,NE,44,0.0,-999.0,94,0.48,,,-99.99,,2013-07-19 05:02:00,
2013-07-18 23:11:00,69.0,67.0,30.11,NE,44,0.0,-999.0,94,0.48,,,-99.99,,2013-07-19 05:11:00,
2013-07-18 23:22:00,69.0,67.0,30.11,NE,44,0.0,-999.0,93,0.48,,,-99.99,,2013-07-19 05:22:00,
2013-07-18 23:32:00,69.0,67.0,30.11,NE,44,0.0,-999.0,93,0.48,,,-99.99,,2013-07-19 05:32:00,
2013-07-18 23:43:00,69.0,67.0,30.11,NE,44,0.0,-999.0,94,0.48,,,-99.99,,2013-07-19 05:43:00,
2013-07-18 23:53:00,69.0,67.0,30.11,NE,44,0.0,-999.0,94,0.48,,,-99.99,,2013-07-19 05:53:00,